createdAt,value
2022-08-01T00:00:48.730Z,25.19
2022-08-01T00:01:53.180Z,25.18
2022-08-01T00:02:57.804Z,25.18
2022-08-01T00:04:02.609Z,25.18
2022-08-01T00:05:07.086Z,25.19
2022-08-01T00:06:11.588Z,25.19
2022-08-01T00:07:15.973Z,25.18
2022-08-01T00:08:20.360Z,25.18
2022-08-01T00:09:24.757Z,25.18
2022-08-01T00:10:29.129Z,25.18
2022-08-01T00:11:33.875Z,25.18
2022-08-01T00:12:38.283Z,25.17
2022-08-01T00:13:42.679Z,25.17
2022-08-01T00:14:47.058Z,25.17
2022-08-01T00:15:54.056Z,25.17
2022-08-01T00:17:00.546Z,25.18
2022-08-01T00:18:10.859Z,25.18
2022-08-01T00:19:15.297Z,25.18
2022-08-01T00:20:19.702Z,25.18
2022-08-01T00:21:24.097Z,25.18
2022-08-01T00:22:28.616Z,25.17
2022-08-01T00:23:33.009Z,25.17
2022-08-01T00:24:37.385Z,25.18
2022-08-01T00:25:41.773Z,25.18
2022-08-01T00:26:48.882Z,25.19
2022-08-01T00:27:53.298Z,25.19
2022-08-01T00:28:58.040Z,25.21
2022-08-01T00:30:10.668Z,25.22
2022-08-01T00:31:18.507Z,25.23
2022-08-01T00:32:25.639Z,25.22
2022-08-01T00:33:30.022Z,25.23
2022-08-01T00:34:34.432Z,25.23
2022-08-01T00:35:38.840Z,25.23
2022-08-01T00:36:43.234Z,25.23
2022-08-01T00:37:47.623Z,25.24
2022-08-01T00:38:52.023Z,25.23
2022-08-01T00:39:56.411Z,25.23
2022-08-01T00:41:00.813Z,25.24
2022-08-01T00:42:05.555Z,25.24
2022-08-01T00:43:10.700Z,25.24
2022-08-01T00:44:15.097Z,25.25
2022-08-01T00:45:19.499Z,25.23
2022-08-01T00:46:23.903Z,25.23
2022-08-01T00:47:28.289Z,25.23
2022-08-01T00:48:32.683Z,25.23
2022-08-01T00:49:37.179Z,25.23
2022-08-01T00:50:41.869Z,25.22
2022-08-01T00:51:46.344Z,25.22
2022-08-01T00:52:51.260Z,25.21
2022-08-01T00:53:55.753Z,25.2
2022-08-01T00:55:02.690Z,25.2
2022-08-01T00:56:07.090Z,25.19
2022-08-01T00:57:11.523Z,25.18
2022-08-01T00:58:30.241Z,25.17
2022-08-01T00:59:35.296Z,25.16
2022-08-01T01:00:53.406Z,25.16
2022-08-01T01:01:58.761Z,25.15
2022-08-01T01:03:04.773Z,25.15
2022-08-01T01:04:09.144Z,25.14
2022-08-01T01:05:13.553Z,25.14
2022-08-01T01:06:17.962Z,25.14
2022-08-01T01:07:22.349Z,25.15
2022-08-01T01:08:26.767Z,25.16
2022-08-01T01:09:31.150Z,25.15
2022-08-01T01:10:35.572Z,25.14
2022-08-01T01:11:39.977Z,25.15
2022-08-01T01:12:48.202Z,25.15
2022-08-01T01:13:54.065Z,25.15
2022-08-01T01:14:58.493Z,25.16
2022-08-01T01:16:02.960Z,25.15
2022-08-01T01:17:07.361Z,25.14
2022-08-01T01:18:11.787Z,25.15
2022-08-01T01:19:16.174Z,25.15
2022-08-01T01:20:20.558Z,25.16
2022-08-01T01:21:25.047Z,25.15
2022-08-01T01:22:29.442Z,25.14
2022-08-01T01:23:33.822Z,25.14
2022-08-01T01:24:38.224Z,25.14
2022-08-01T01:25:42.626Z,25.14
2022-08-01T01:26:47.034Z,25.14
2022-08-01T01:27:51.446Z,25.15
2022-08-01T01:28:55.836Z,25.16
2022-08-01T01:30:01.035Z,25.15
2022-08-01T01:31:05.673Z,25.15
2022-08-01T01:32:14.333Z,25.15
2022-08-01T01:33:18.719Z,25.14
2022-08-01T01:34:23.146Z,25.13
2022-08-01T01:35:30.743Z,25.13
2022-08-01T01:36:35.134Z,25.13
2022-08-01T01:37:39.518Z,25.13
2022-08-01T01:38:43.901Z,25.13
2022-08-01T01:39:48.299Z,25.12
2022-08-01T01:40:58.805Z,25.14
2022-08-01T01:42:03.633Z,25.15
2022-08-01T01:43:09.055Z,25.15
2022-08-01T01:44:13.479Z,25.16
2022-08-01T01:45:17.893Z,25.16
2022-08-01T01:46:22.269Z,25.16
2022-08-01T01:47:26.663Z,25.17
2022-08-01T01:48:31.075Z,25.15
2022-08-01T01:49:35.553Z,25.14
2022-08-01T01:50:40.226Z,25.15
2022-08-01T01:51:49.459Z,25.15
2022-08-01T01:53:06.948Z,25.16
2022-08-01T01:54:19.352Z,25.16
2022-08-01T01:55:23.748Z,25.15
2022-08-01T01:56:28.125Z,25.15
2022-08-01T01:57:32.556Z,25.15
2022-08-01T01:58:36.955Z,25.15
2022-08-01T01:59:41.348Z,25.14
2022-08-01T02:00:45.757Z,25.14
2022-08-01T02:01:59.021Z,25.15
2022-08-01T02:03:13.906Z,25.14
2022-08-01T02:04:18.319Z,25.14
2022-08-01T02:05:22.738Z,25.14
2022-08-01T02:06:27.155Z,25.14
2022-08-01T02:07:31.541Z,25.13
2022-08-01T02:08:35.983Z,25.14
2022-08-01T02:09:40.553Z,25.13
2022-08-01T02:10:44.943Z,25.15
2022-08-01T02:11:59.380Z,25.15
2022-08-01T02:13:14.609Z,25.14
2022-08-01T02:14:22.680Z,25.14
2022-08-01T02:15:27.057Z,25.14
2022-08-01T02:16:31.460Z,25.13
2022-08-01T02:17:35.858Z,25.14
2022-08-01T02:18:40.238Z,25.14
2022-08-01T02:19:44.688Z,25.14
2022-08-01T02:20:49.071Z,25.14
2022-08-01T02:21:58.287Z,25.14
2022-08-01T02:23:02.691Z,25.13
2022-08-01T02:24:07.101Z,25.14
2022-08-01T02:25:11.523Z,25.14
2022-08-01T02:26:15.945Z,25.14
2022-08-01T02:27:20.337Z,25.14
2022-08-01T02:28:24.772Z,25.14
2022-08-01T02:29:31.936Z,25.14
2022-08-01T02:30:36.357Z,25.14
2022-08-01T02:31:40.744Z,25.13
2022-08-01T02:32:45.148Z,25.12
2022-08-01T02:33:49.547Z,25.12
2022-08-01T02:34:53.997Z,25.12
2022-08-01T02:36:28.655Z,25.11
2022-08-01T02:37:37.079Z,25.11
2022-08-01T02:38:50.355Z,25.11
2022-08-01T02:39:54.730Z,25.1
2022-08-01T02:40:59.106Z,25.1
2022-08-01T02:42:03.816Z,25.09
2022-08-01T02:43:09.442Z,25.08
2022-08-01T02:44:13.844Z,25.09
2022-08-01T02:45:18.195Z,25.08
2022-08-01T02:46:22.609Z,25.09
2022-08-01T02:47:27.022Z,25.08
2022-08-01T02:48:31.453Z,25.08
2022-08-01T02:49:38.358Z,25.09
2022-08-01T02:50:42.814Z,25.09
2022-08-01T02:51:47.205Z,25.1
2022-08-01T02:52:51.646Z,25.11
2022-08-01T02:53:56.037Z,25.1
2022-08-01T02:55:01.087Z,25.11
2022-08-01T02:56:05.508Z,25.11
2022-08-01T02:57:13.911Z,25.11
2022-08-01T02:58:22.974Z,25.1
2022-08-01T02:59:33.881Z,25.11
2022-08-01T03:00:40.552Z,25.1
2022-08-01T03:01:46.210Z,25.1
2022-08-01T03:02:51.612Z,25.11
2022-08-01T03:03:56.029Z,25.1
2022-08-01T03:05:00.423Z,25.1
2022-08-01T03:06:04.825Z,25.1
2022-08-01T03:07:09.227Z,25.1
2022-08-01T03:08:14.803Z,25.1
2022-08-01T03:09:19.397Z,25.11
2022-08-01T03:10:23.835Z,25.12
2022-08-01T03:11:29.152Z,25.13
2022-08-01T03:12:33.560Z,25.14
2022-08-01T03:13:37.999Z,25.14
2022-08-01T03:14:42.417Z,25.16
2022-08-01T03:15:47.231Z,25.16
2022-08-01T03:16:51.629Z,25.16
2022-08-01T03:17:56.000Z,25.16
2022-08-01T03:19:00.422Z,25.16
2022-08-01T03:20:04.854Z,25.17
2022-08-01T03:21:09.260Z,25.17
2022-08-01T03:22:13.766Z,25.17
2022-08-01T03:23:18.176Z,25.17
2022-08-01T03:24:24.600Z,25.18
2022-08-01T03:25:29.030Z,25.19
2022-08-01T03:26:33.428Z,25.2
2022-08-01T03:27:37.852Z,25.2
2022-08-01T03:28:42.260Z,25.2
2022-08-01T03:29:46.687Z,25.21
2022-08-01T03:30:51.107Z,25.22
2022-08-01T03:31:55.520Z,25.23
2022-08-01T03:32:59.904Z,25.23
2022-08-01T03:34:05.953Z,25.24
2022-08-01T03:35:10.565Z,25.24
2022-08-01T03:36:14.947Z,25.24
2022-08-01T03:37:19.321Z,25.25
2022-08-01T03:38:23.766Z,25.31
2022-08-01T03:39:28.229Z,25.31
2022-08-01T03:40:32.644Z,25.21
2022-08-01T03:41:37.044Z,25.12
2022-08-01T03:42:41.456Z,25.04
2022-08-01T03:43:50.072Z,24.98
2022-08-01T03:44:54.461Z,24.96
2022-08-01T03:45:58.838Z,24.92
2022-08-01T03:47:03.468Z,24.91
2022-08-01T03:48:07.865Z,24.9
2022-08-01T03:49:12.301Z,24.89
2022-08-01T03:50:16.848Z,24.9
2022-08-01T03:51:21.235Z,24.87
2022-08-01T03:52:25.599Z,24.85
2022-08-01T03:53:31.201Z,24.83
2022-08-01T03:54:35.616Z,24.79
2022-08-01T03:55:40.018Z,24.79
2022-08-01T03:56:44.394Z,24.8
2022-08-01T03:57:48.830Z,24.82
2022-08-01T03:58:53.221Z,24.82
2022-08-01T03:59:57.674Z,24.79
2022-08-01T04:01:02.231Z,24.79
2022-08-01T04:02:07.409Z,24.78
2022-08-01T04:03:12.229Z,24.8
2022-08-01T04:04:16.622Z,24.77
2022-08-01T04:05:21.013Z,24.79
2022-08-01T04:06:25.442Z,24.78
2022-08-01T04:07:29.870Z,24.78
2022-08-01T04:08:34.253Z,24.77
2022-08-01T04:09:38.628Z,24.76
2022-08-01T04:10:46.141Z,24.76
2022-08-01T04:11:55.335Z,24.74
2022-08-01T04:12:59.699Z,24.73
2022-08-01T04:14:04.110Z,24.75
2022-08-01T04:15:13.606Z,24.77
2022-08-01T04:16:18.018Z,24.76
2022-08-01T04:17:22.448Z,24.77
2022-08-01T04:18:26.837Z,24.77
2022-08-01T04:19:31.253Z,24.74
2022-08-01T04:20:35.680Z,24.73
2022-08-01T04:21:41.023Z,24.74
2022-08-01T04:22:45.407Z,24.76
2022-08-01T04:23:50.888Z,24.75
2022-08-01T04:24:57.308Z,24.77
2022-08-01T04:26:01.703Z,24.73
2022-08-01T04:27:06.124Z,24.7
2022-08-01T04:28:10.586Z,24.67
2022-08-01T04:29:15.025Z,24.65
2022-08-01T04:30:20.828Z,24.66
2022-08-01T04:31:25.424Z,24.66
2022-08-01T04:32:29.810Z,24.64
2022-08-01T04:33:34.211Z,24.61
2022-08-01T04:34:38.788Z,24.62
2022-08-01T04:36:01.194Z,24.62
2022-08-01T04:37:08.514Z,24.66
2022-08-01T04:38:15.509Z,24.64
2022-08-01T04:39:19.924Z,24.66
2022-08-01T04:40:24.422Z,24.65
2022-08-01T04:41:28.837Z,24.64
2022-08-01T04:42:33.363Z,24.67
2022-08-01T04:43:38.063Z,24.66
2022-08-01T04:44:42.471Z,24.66
2022-08-01T04:45:48.088Z,24.63
2022-08-01T04:46:52.489Z,24.63
2022-08-01T04:47:56.943Z,24.63
2022-08-01T04:49:01.368Z,24.59
2022-08-01T04:50:05.941Z,24.63
2022-08-01T04:51:10.625Z,24.64
2022-08-01T04:52:18.125Z,24.61
2022-08-01T04:53:28.146Z,24.61
2022-08-01T04:54:32.950Z,24.62
2022-08-01T04:55:37.353Z,24.6
2022-08-01T04:56:41.783Z,24.59
2022-08-01T04:57:46.182Z,24.58
2022-08-01T04:58:50.596Z,24.57
2022-08-01T04:59:54.980Z,24.58
2022-08-01T05:00:59.434Z,24.57
2022-08-01T05:02:04.290Z,24.57
2022-08-01T05:03:09.728Z,24.63
2022-08-01T05:04:14.152Z,24.62
2022-08-01T05:05:18.555Z,24.57
2022-08-01T05:06:22.978Z,24.56
2022-08-01T05:07:27.656Z,24.52
2022-08-01T05:08:32.056Z,24.53
2022-08-01T05:09:36.427Z,24.57
2022-08-01T05:10:40.897Z,24.56
2022-08-01T05:11:45.285Z,24.55
2022-08-01T05:12:49.683Z,24.54
2022-08-01T05:13:54.105Z,24.56
2022-08-01T05:14:58.548Z,24.56
2022-08-01T05:16:02.911Z,24.54
2022-08-01T05:17:07.633Z,24.51
2022-08-01T05:18:12.031Z,24.51
2022-08-01T05:19:17.801Z,24.53
2022-08-01T05:20:22.215Z,24.56
2022-08-01T05:21:26.684Z,24.56
2022-08-01T05:22:31.093Z,24.56
2022-08-01T05:23:42.726Z,24.53
2022-08-01T05:24:47.888Z,24.52
2022-08-01T05:25:57.522Z,24.52
2022-08-01T05:27:04.166Z,24.54
2022-08-01T05:28:12.168Z,24.55
2022-08-01T05:29:23.602Z,24.54
2022-08-01T05:30:28.027Z,24.55
2022-08-01T05:31:32.443Z,24.51
2022-08-01T05:32:36.883Z,24.54
2022-08-01T05:33:41.279Z,24.54
2022-08-01T05:34:45.697Z,24.53
2022-08-01T05:35:50.149Z,24.5
2022-08-01T05:36:57.850Z,24.51
2022-08-01T05:38:02.504Z,24.5
2022-08-01T05:39:06.947Z,24.53
2022-08-01T05:40:11.310Z,24.53
2022-08-01T05:41:15.864Z,24.52
2022-08-01T05:42:20.236Z,24.56
2022-08-01T05:43:28.622Z,24.46
2022-08-01T05:44:33.398Z,24.43
2022-08-01T05:45:37.780Z,24.37
2022-08-01T05:46:42.190Z,24.42
2022-08-01T05:47:46.580Z,24.42
2022-08-01T05:48:51.069Z,24.43
2022-08-01T05:49:57.124Z,24.42
2022-08-01T05:51:01.507Z,24.47
2022-08-01T05:52:06.038Z,24.45
2022-08-01T05:53:11.922Z,24.47
2022-08-01T05:54:16.397Z,24.51
2022-08-01T05:55:21.816Z,24.49
2022-08-01T05:56:29.373Z,24.5
2022-08-01T05:57:36.266Z,24.48
2022-08-01T05:58:44.049Z,24.47
2022-08-01T05:59:48.433Z,24.51
2022-08-01T06:00:52.847Z,24.52
2022-08-01T06:01:57.262Z,24.48
2022-08-01T06:03:01.958Z,24.45
2022-08-01T06:04:06.370Z,24.46
2022-08-01T06:05:13.148Z,24.47
2022-08-01T06:06:17.842Z,24.48
2022-08-01T06:07:28.766Z,24.49
2022-08-01T06:08:33.164Z,24.53
2022-08-01T06:09:37.616Z,24.53
2022-08-01T06:10:42.003Z,24.49
2022-08-01T06:11:46.428Z,24.52
2022-08-01T06:12:51.118Z,24.51
2022-08-01T06:13:55.557Z,24.51
2022-08-01T06:14:59.965Z,24.49
2022-08-01T06:16:05.354Z,24.47
2022-08-01T06:17:09.761Z,24.5
2022-08-01T06:18:14.164Z,24.47
2022-08-01T06:19:18.535Z,24.47
2022-08-01T06:20:22.997Z,24.5
2022-08-01T06:21:27.391Z,24.49
2022-08-01T06:22:31.813Z,24.49
2022-08-01T06:23:37.158Z,24.5
2022-08-01T06:24:41.547Z,24.49
2022-08-01T06:25:46.027Z,24.49
2022-08-01T06:26:50.413Z,24.51
2022-08-01T06:27:54.822Z,24.51
2022-08-01T06:28:59.281Z,24.52
2022-08-01T06:30:03.694Z,24.53
2022-08-01T06:31:08.255Z,24.52
2022-08-01T06:32:12.652Z,24.5
2022-08-01T06:33:31.440Z,24.49
2022-08-01T06:34:35.835Z,24.49
2022-08-01T06:35:40.237Z,24.5
2022-08-01T06:36:44.642Z,24.52
2022-08-01T06:37:49.022Z,24.48
2022-08-01T06:38:53.485Z,24.47
2022-08-01T06:39:57.866Z,24.51
2022-08-01T06:41:02.266Z,24.43
2022-08-01T06:42:06.825Z,24.47
2022-08-01T06:43:11.901Z,24.5
2022-08-01T06:44:16.305Z,24.47
2022-08-01T06:45:20.741Z,24.44
2022-08-01T06:46:30.159Z,24.44
2022-08-01T06:47:38.553Z,24.46
2022-08-01T06:48:42.922Z,24.46
2022-08-01T06:49:47.337Z,24.45
2022-08-01T06:50:51.770Z,24.45
2022-08-01T06:51:56.157Z,24.44
2022-08-01T06:53:00.563Z,24.39
2022-08-01T06:54:04.960Z,24.43
2022-08-01T06:55:09.331Z,24.45
2022-08-01T06:56:13.733Z,24.39
2022-08-01T06:57:18.151Z,24.36
2022-08-01T06:58:22.535Z,24.36
2022-08-01T06:59:36.067Z,24.29
2022-08-01T07:00:40.453Z,24.33
2022-08-01T07:01:45.005Z,24.33
2022-08-01T07:02:49.461Z,24.31
2022-08-01T07:03:54.966Z,24.3
2022-08-01T07:04:59.499Z,24.35
2022-08-01T07:06:06.317Z,24.32
2022-08-01T07:07:10.709Z,24.34
2022-08-01T07:08:15.104Z,24.3
2022-08-01T07:09:19.508Z,24.36
2022-08-01T07:10:23.987Z,24.38
2022-08-01T07:11:28.427Z,24.39
2022-08-01T07:12:32.827Z,24.44
2022-08-01T07:13:43.839Z,24.42
2022-08-01T07:14:49.201Z,24.4
2022-08-01T07:15:53.596Z,24.42
2022-08-01T07:16:57.992Z,24.4
2022-08-01T07:18:02.358Z,24.43
2022-08-01T07:19:06.742Z,24.39
2022-08-01T07:20:11.204Z,24.36
2022-08-01T07:21:39.531Z,24.38
2022-08-01T07:22:52.479Z,24.41
2022-08-01T07:24:02.501Z,24.43
2022-08-01T07:25:21.852Z,24.37
2022-08-01T07:26:26.291Z,24.33
2022-08-01T07:27:30.712Z,24.37
2022-08-01T07:28:35.122Z,24.35
2022-08-01T07:29:48.245Z,24.35
2022-08-01T07:30:52.618Z,24.35
2022-08-01T07:31:57.046Z,24.36
2022-08-01T07:33:01.454Z,24.33
2022-08-01T07:34:05.870Z,24.33
2022-08-01T07:35:10.763Z,24.32
2022-08-01T07:36:15.195Z,24.39
2022-08-01T07:37:41.920Z,24.36
2022-08-01T07:38:52.938Z,24.35
2022-08-01T07:39:57.345Z,24.36
2022-08-01T07:41:01.749Z,24.36
2022-08-01T07:42:08.201Z,24.35
2022-08-01T07:43:13.654Z,24.36
2022-08-01T07:44:19.439Z,24.37
2022-08-01T07:45:23.893Z,24.38
2022-08-01T07:46:28.285Z,24.38
2022-08-01T07:47:32.676Z,24.41
2022-08-01T07:48:37.109Z,24.43
2022-08-01T07:49:41.565Z,24.4
2022-08-01T07:50:47.142Z,24.38
2022-08-01T07:52:02.282Z,24.38
2022-08-01T07:53:08.057Z,24.3
2022-08-01T07:54:12.463Z,24.34
2022-08-01T07:55:16.967Z,24.35
2022-08-01T07:56:21.392Z,24.39
2022-08-01T07:57:25.787Z,24.39
2022-08-01T07:58:30.193Z,24.43
2022-08-01T07:59:34.635Z,24.41
2022-08-01T08:00:39.038Z,24.38
2022-08-01T08:01:43.490Z,24.34
2022-08-01T08:02:51.881Z,24.38
2022-08-01T08:03:56.331Z,24.34
2022-08-01T08:05:00.737Z,24.34
2022-08-01T08:06:05.186Z,24.36
2022-08-01T08:07:10.023Z,24.36
2022-08-01T08:08:14.887Z,24.38
2022-08-01T08:09:19.286Z,24.38
2022-08-01T08:10:23.801Z,24.45
2022-08-01T08:11:29.926Z,24.45
2022-08-01T08:12:34.484Z,24.41
2022-08-01T08:13:38.861Z,24.42
2022-08-01T08:14:43.254Z,24.4
2022-08-01T08:15:48.261Z,24.44
2022-08-01T08:16:53.201Z,24.43
2022-08-01T08:17:59.628Z,24.44
2022-08-01T08:19:04.048Z,24.42
2022-08-01T08:20:09.093Z,24.41
2022-08-01T08:21:13.813Z,24.45
2022-08-01T08:22:18.225Z,24.44
2022-08-01T08:23:42.310Z,24.44
2022-08-01T08:24:47.899Z,24.45
2022-08-01T08:25:52.331Z,24.45
2022-08-01T08:26:56.726Z,24.43
2022-08-01T08:28:01.155Z,24.44
2022-08-01T08:29:06.783Z,24.43
2022-08-01T08:30:11.146Z,24.45
2022-08-01T08:31:24.807Z,24.44
2022-08-01T08:32:56.339Z,24.44
2022-08-01T08:34:00.741Z,24.44
2022-08-01T08:35:06.437Z,24.43
2022-08-01T08:36:14.478Z,24.46
2022-08-01T08:37:21.156Z,24.54
2022-08-01T08:38:28.567Z,24.57
2022-08-01T08:39:41.454Z,24.57
2022-08-01T08:40:46.701Z,24.56
2022-08-01T08:41:51.104Z,24.56
2022-08-01T08:42:55.511Z,24.5
2022-08-01T08:43:59.908Z,24.5
2022-08-01T08:45:04.337Z,24.52
2022-08-01T08:46:15.181Z,24.48
2022-08-01T08:47:20.712Z,24.5
2022-08-01T08:48:27.839Z,24.52
2022-08-01T08:49:35.777Z,24.5
2022-08-01T08:50:45.947Z,24.53
2022-08-01T08:51:50.383Z,24.52
2022-08-01T08:52:54.793Z,24.51
2022-08-01T08:54:00.402Z,24.51
2022-08-01T08:55:04.791Z,24.49
2022-08-01T08:56:09.194Z,24.51
2022-08-01T08:57:13.588Z,24.51
2022-08-01T08:58:19.346Z,24.51
2022-08-01T08:59:25.731Z,24.56
2022-08-01T09:00:30.166Z,24.55
2022-08-01T09:01:34.565Z,24.52
2022-08-01T09:02:38.938Z,24.53
2022-08-01T09:03:43.351Z,24.52
2022-08-01T09:04:47.746Z,24.52
2022-08-01T09:05:52.189Z,24.53
2022-08-01T09:06:56.604Z,24.55
2022-08-01T09:08:01.088Z,24.55
2022-08-01T09:09:05.551Z,24.55
2022-08-01T09:10:09.938Z,24.55
2022-08-01T09:11:22.711Z,24.56
2022-08-01T09:12:27.681Z,24.54
2022-08-01T09:13:32.254Z,24.54
2022-08-01T09:14:36.640Z,24.39
2022-08-01T09:15:41.025Z,24.43
2022-08-01T09:16:48.697Z,24.41
2022-08-01T09:17:53.318Z,24.29
2022-08-01T09:18:57.726Z,24.24
2022-08-01T09:20:02.418Z,24.29
2022-08-01T09:21:06.803Z,24.32
2022-08-01T09:22:11.223Z,24.37
2022-08-01T09:23:15.636Z,24.45
2022-08-01T09:24:26.060Z,24.48
2022-08-01T09:25:36.711Z,24.02
2022-08-01T09:26:51.462Z,24.03
2022-08-01T09:27:55.926Z,23.89
2022-08-01T09:29:02.174Z,24.09
2022-08-01T09:30:09.235Z,24.24
2022-08-01T09:31:15.614Z,24.25
2022-08-01T09:32:25.802Z,24.34
2022-08-01T09:33:39.089Z,24.24
2022-08-01T09:34:46.153Z,24.38
2022-08-01T09:35:50.744Z,24.4
2022-08-01T09:36:57.050Z,24.39
2022-08-01T09:38:03.084Z,24.46
2022-08-01T09:39:11.511Z,24.55
2022-08-01T09:40:15.900Z,24.42
2022-08-01T09:41:20.486Z,24.5
2022-08-01T09:42:39.849Z,24.55
2022-08-01T09:43:44.356Z,24.64
2022-08-01T09:44:54.786Z,24.64
2022-08-01T09:45:59.443Z,24.65
2022-08-01T09:47:07.547Z,24.65
2022-08-01T09:48:17.732Z,24.54
2022-08-01T09:49:25.024Z,24.66
2022-08-01T09:51:05.066Z,24.67
2022-08-01T09:52:13.881Z,24.69
2022-08-01T09:53:22.842Z,24.76
2022-08-01T09:54:42.498Z,24.76
2022-08-01T09:55:48.055Z,24.74
2022-08-01T09:56:52.483Z,24.79
2022-08-01T09:57:56.919Z,24.77
2022-08-01T09:59:02.567Z,24.67
2022-08-01T10:00:08.038Z,24.7
2022-08-01T10:01:26.615Z,24.75
2022-08-01T10:02:42.892Z,24.79
2022-08-01T10:03:49.146Z,24.72
2022-08-01T10:04:56.897Z,24.74
2022-08-01T10:06:11.427Z,24.76
2022-08-01T10:07:16.055Z,24.75
2022-08-01T10:08:30.077Z,24.68
2022-08-01T10:09:35.774Z,24.64
2022-08-01T10:10:46.349Z,24.69
2022-08-01T10:12:01.240Z,24.84
2022-08-01T10:13:05.700Z,24.86
2022-08-01T10:14:13.240Z,24.89
2022-08-01T10:15:25.202Z,24.88
2022-08-01T10:16:44.142Z,24.79
2022-08-01T10:18:16.298Z,24.93
2022-08-01T10:19:29.802Z,24.96
2022-08-01T10:20:37.264Z,25.01
2022-08-01T10:21:49.285Z,25
2022-08-01T10:23:05.715Z,25.05
2022-08-01T10:24:11.931Z,25.12
2022-08-01T10:25:16.365Z,25.11
2022-08-01T10:26:49.102Z,25.18
2022-08-01T10:27:53.926Z,25.21
2022-08-01T10:29:00.727Z,25.2
2022-08-01T10:30:26.286Z,25.23
2022-08-01T10:31:33.579Z,25.29
2022-08-01T10:32:40.096Z,25.28
2022-08-01T10:33:50.283Z,25.39
2022-08-01T10:34:59.946Z,25.43
2022-08-01T10:36:48.022Z,25.65
2022-08-01T10:37:52.934Z,25.52
2022-08-01T10:38:57.341Z,25.47
2022-08-01T10:40:28.640Z,25.4
2022-08-01T10:41:35.252Z,25.4
2022-08-01T10:42:44.849Z,25.4
2022-08-01T10:43:49.825Z,25.4
2022-08-01T10:44:54.568Z,25.33
2022-08-01T10:45:59.290Z,25.31
2022-08-01T10:47:05.303Z,25.38
2022-08-01T10:48:14.584Z,25.29
2022-08-01T10:49:23.985Z,25.31
2022-08-01T10:50:28.647Z,25.3
2022-08-01T10:51:51.898Z,25.34
2022-08-01T10:53:00.025Z,25.37
2022-08-01T10:54:51.922Z,25.28
2022-08-01T10:55:56.710Z,25.23
2022-08-01T10:57:06.226Z,25.21
2022-08-01T10:58:13.474Z,25.25
2022-08-01T10:59:29.352Z,25.17
2022-08-01T11:01:04.462Z,25.17
2022-08-01T11:02:13.424Z,25.09
2022-08-01T11:03:17.908Z,25.1
2022-08-01T11:05:01.509Z,24.98
2022-08-01T11:06:08.273Z,25
2022-08-01T11:07:13.105Z,25.03
2022-08-01T11:08:18.366Z,25.01
2022-08-01T11:09:22.784Z,24.99
2022-08-01T11:10:40.441Z,25.01
2022-08-01T11:11:47.569Z,25.01
2022-08-01T11:12:54.394Z,25.02
2022-08-01T11:14:00.697Z,25.05
2022-08-01T11:15:05.596Z,24.93
2022-08-01T11:16:15.985Z,24.91
2022-08-01T11:17:26.780Z,24.93
2022-08-01T11:18:45.116Z,24.97
2022-08-01T11:19:52.639Z,24.95
2022-08-01T11:21:56.615Z,24.96
2022-08-01T11:23:04.747Z,24.91
2022-08-01T11:24:10.279Z,24.82
2022-08-01T11:25:15.822Z,24.82
2022-08-01T11:27:06.383Z,24.82
2022-08-01T11:28:15.084Z,24.84
2022-08-01T11:29:34.611Z,24.87
2022-08-01T11:30:40.535Z,24.85
2022-08-01T11:31:46.572Z,24.91
2022-08-01T11:33:10.867Z,24.95
2022-08-01T11:34:17.715Z,24.99
2022-08-01T11:35:23.955Z,24.91
2022-08-01T11:36:55.648Z,24.92
2022-08-01T11:38:05.472Z,24.93
2022-08-01T11:39:13.061Z,24.9
2022-08-01T11:40:17.901Z,24.91
2022-08-01T11:41:36.975Z,24.92
2022-08-01T11:42:42.987Z,24.94
2022-08-01T11:43:47.409Z,24.86
2022-08-01T11:44:53.995Z,24.88
2022-08-01T11:46:00.200Z,24.86
2022-08-01T11:47:07.240Z,24.86
2022-08-01T11:48:16.884Z,24.88
2022-08-01T11:49:21.447Z,24.88
2022-08-01T11:50:31.645Z,24.81
2022-08-01T11:51:36.082Z,24.67
2022-08-01T11:52:41.549Z,24.53
2022-08-01T11:53:45.994Z,24.31
2022-08-01T11:54:50.455Z,24.16
2022-08-01T11:55:54.867Z,24.14
2022-08-01T11:56:59.315Z,24.13
2022-08-01T11:58:03.735Z,24.23
2022-08-01T11:59:08.497Z,24.21
2022-08-01T12:00:25.013Z,24.35
2022-08-01T12:01:30.617Z,24.46
2022-08-01T12:02:35.360Z,24.48
2022-08-01T12:03:40.671Z,24.34
2022-08-01T12:04:51.288Z,24.5
2022-08-01T12:05:55.741Z,24.36
2022-08-01T12:07:00.131Z,24.35
2022-08-01T12:08:04.551Z,24.39
2022-08-01T12:09:12.147Z,24.47
2022-08-01T12:10:16.818Z,24.45
2022-08-01T12:11:21.511Z,24.43
2022-08-01T12:12:39.420Z,24.52
2022-08-01T12:13:43.814Z,24.54
2022-08-01T12:14:49.232Z,24.52
2022-08-01T12:15:56.771Z,24.45
2022-08-01T12:17:01.371Z,24.49
2022-08-01T12:18:06.104Z,24.64
2022-08-01T12:19:11.570Z,24.58
2022-08-01T12:20:17.444Z,24.64
2022-08-01T12:21:21.830Z,24.66
2022-08-01T12:22:26.203Z,24.52
2022-08-01T12:23:30.622Z,24.44
2022-08-01T12:24:35.055Z,24.46
2022-08-01T12:25:39.439Z,24.43
2022-08-01T12:26:44.064Z,24.25
2022-08-01T12:27:48.816Z,24.03
2022-08-01T12:28:59.450Z,23.98
2022-08-01T12:30:04.028Z,24.23
2022-08-01T12:31:08.438Z,24.31
2022-08-01T12:32:15.085Z,24.52
2022-08-01T12:33:39.122Z,24.65
2022-08-01T12:34:43.690Z,24.73
2022-08-01T12:35:48.080Z,24.8
2022-08-01T12:36:52.808Z,24.83
2022-08-01T12:37:57.189Z,24.85
2022-08-01T12:39:01.630Z,24.86
2022-08-01T12:40:06.095Z,24.88
2022-08-01T12:41:10.490Z,24.91
2022-08-01T12:42:14.874Z,24.9
2022-08-01T12:43:27.730Z,24.95
2022-08-01T12:44:33.411Z,24.97
2022-08-01T12:45:37.844Z,24.99
2022-08-01T12:46:44.453Z,24.99
2022-08-01T12:47:48.996Z,25.01
2022-08-01T12:48:53.401Z,25.04
2022-08-01T12:49:57.984Z,25.03
2022-08-01T12:51:02.482Z,25.01
2022-08-01T12:52:10.275Z,25.05
2022-08-01T12:53:17.264Z,25.06
2022-08-01T12:54:21.671Z,25.08
2022-08-01T12:55:33.878Z,25.09
2022-08-01T12:56:46.904Z,25.12
2022-08-01T12:57:51.918Z,25.13
2022-08-01T12:58:56.340Z,25.12
2022-08-01T13:00:00.720Z,25.12
2022-08-01T13:01:05.123Z,25.13
2022-08-01T13:02:10.050Z,25.1
2022-08-01T13:03:14.497Z,25.04
2022-08-01T13:04:18.921Z,25.06
2022-08-01T13:05:23.306Z,25.09
2022-08-01T13:06:27.724Z,25.11
2022-08-01T13:07:37.484Z,25.09
2022-08-01T13:08:49.378Z,25.1
2022-08-01T13:09:53.772Z,25.12
2022-08-01T13:10:58.160Z,25.11
2022-08-01T13:12:04.030Z,25.16
2022-08-01T13:13:15.718Z,25.15
2022-08-01T13:14:32.741Z,25.17
2022-08-01T13:15:41.651Z,25.16
2022-08-01T13:16:56.602Z,25.15
2022-08-01T13:18:01.516Z,25.16
2022-08-01T13:19:05.951Z,25.12
2022-08-01T13:20:10.868Z,25.11
2022-08-01T13:21:15.254Z,25.07
2022-08-01T13:22:19.681Z,25.13
2022-08-01T13:24:02.295Z,25.14
2022-08-01T13:25:07.926Z,25.23
2022-08-01T13:26:16.762Z,25.27
2022-08-01T13:27:21.199Z,25.26
2022-08-01T13:28:25.610Z,25.23
2022-08-01T13:29:30.075Z,25.17
2022-08-01T13:30:34.452Z,25.19
2022-08-01T13:31:38.825Z,25.16
2022-08-01T13:32:43.206Z,25.17
2022-08-01T13:33:52.421Z,25.21
2022-08-01T13:35:04.585Z,25.21
2022-08-01T13:36:09.106Z,25.18
2022-08-01T13:37:13.495Z,25.17
2022-08-01T13:38:18.679Z,25.18
2022-08-01T13:39:23.084Z,25.16
2022-08-01T13:40:27.467Z,25.17
2022-08-01T13:41:32.119Z,25.21
2022-08-01T13:42:36.542Z,25.24
2022-08-01T13:43:57.903Z,25.32
2022-08-01T13:45:03.719Z,25.32
2022-08-01T13:46:18.769Z,25.36
2022-08-01T13:47:26.032Z,25.34
2022-08-01T13:48:36.367Z,25.35
2022-08-01T13:49:41.659Z,25.35
2022-08-01T13:50:57.355Z,25.34
2022-08-01T13:52:25.610Z,25.35
2022-08-01T13:53:30.078Z,25.37
2022-08-01T13:54:34.485Z,25.32
2022-08-01T13:55:38.875Z,25.32
2022-08-01T13:56:43.278Z,25.29
2022-08-01T13:57:47.679Z,25.32
2022-08-01T13:58:52.350Z,25.35
2022-08-01T13:59:56.743Z,25.37
2022-08-01T14:01:01.215Z,25.33
2022-08-01T14:02:09.799Z,25.32
2022-08-01T14:03:14.344Z,25.36
2022-08-01T14:04:18.721Z,25.37
2022-08-01T14:05:23.111Z,25.42
2022-08-01T14:06:27.517Z,25.47
2022-08-01T14:07:31.900Z,25.5
2022-08-01T14:08:36.749Z,25.47
2022-08-01T14:10:04.610Z,25.47
2022-08-01T14:11:25.347Z,25.52
2022-08-01T14:12:40.821Z,25.51
2022-08-01T14:13:51.182Z,25.53
2022-08-01T14:14:55.809Z,25.56
2022-08-01T14:16:00.209Z,25.51
2022-08-01T14:17:05.410Z,25.49
2022-08-01T14:18:10.719Z,25.45
2022-08-01T14:19:15.367Z,25.4
2022-08-01T14:20:21.613Z,25.41
2022-08-01T14:21:25.995Z,25.41
2022-08-01T14:22:30.403Z,25.37
2022-08-01T14:23:34.774Z,25.38